Aérodrome :
LOGIN :

S'inscrire | Disclaimer

   EN    FR    IT 

 










Légende :    VFR   VFR Marginal   IFR   IFR Intensif   IFR Très Intensif
Visi : 
Plafond : 
>= 8 km
>= 3000ft
5 à 8 km
1000 à 3000 ft
1500m à 5 km
500 à 1000 ft
800 à 1500m
200 à 500 ft
< 800m
< 200 ft
Symboles :   Orages  Brouillard  Fortes neiges  Fortes précipitations  Vent > 20 kt
SIGMETs :   Divers  Orages  Givrage  Turbulence  Onde Orograph.  Cendres Volcan.







- Altitude de l'aérodrome : 353 ft
- Code IATA : LIN


LIML - Milano Linate

DERNIER METAR :
  • 162050Z VRB01KT 6000 NSC 04/03 Q1029 NOSIG

METARs EXPIRÉS :
  • 162020Z 23001KT 7000 NSC 04/00 Q1029 NOSIG
  • 161950Z 21001KT 7000 NSC 05/02 Q1029 NOSIG
  • 161920Z VRB01KT 7000 NSC 06/02 Q1029 NOSIG
  • 161850Z 27002KT 7000 NSC 07/02 Q1029 NOSIG
  • 161820Z VRB01KT CAVOK 08/03 Q1029 NOSIG

TAF TAF LIML
Valide du 16 à 18h jusqu'au 17 à 18h UTC


161700Z 1618/1718 VRB05KT 7000 NSC
BECMG 1621/1624 4000 BR
TEMPO 1702/1708 2000 BCFG
BECMG 1708/1710 7000
Pas de NOTAMs connus pour ce terrain.



MET'MAP, la Météo Aéronautique d'un coup d'oeil ! - Copyright ORBIFLY Décembre 2007 - Disclaimer

ORBIFLY MET'MAP TEAM :

Programmation & Développement : Alexandra Zaïnal
Conception & Développement : Baudouin d'Aumeries
Co-Programmation & Développement : Marc-Olivier Méhu
Soutien technique & logistique : Manuel Goepfert

Contact : metmap@orbifly.com




SOURCES & CREDITS :

   NOAA